Penny Eckstein — WDH9508 — position and weather

sailwx.info

Track history (hours):
 
Tides and Currents Weather Stations Pressure Air Temp Water Temp Dewpoint Dewpoint Depression Visibility Wind Speed Wind Dir Waves Ship Positions

Penny Eckstein

Owner: Marquette Transportation Co. LLC, Paducah, KY. More information available from US FCC via Universal Licensing System and Coast Guard Vessel Documentation Center.

Last reported at 2018-May-10 09:18 UTC. Time now 2018-Jun-23 15:34 UTC.
Position N 39°22' W 090°54'.
Warning: this ship's position is 44 days out of date.

Length 39 m; draft 2.8 m.

Type: Towing. MMSI: 367668810.

Date/timePositionNaut miles runAvg speedWind from/ knotsBaromVisibWave heightAir tempDewpointWater temp
2018-May-10 09:18N 39°22' W 090°54'0 0.1
2018-May-10 09:00N 39°22' W 090°54'0 0.0
2018-May-10 08:30N 39°22' W 090°54'0 0.3
2018-May-10 08:00N 39°22' W 090°54'16 2.8
2018-May-10 02:26N 39°10' W 090°43'2 4.2
2018-May-10 02:00N 39°08' W 090°42'4 4.0
2018-May-10 01:03N 39°04' W 090°42'0 4.7
2018-May-10 01:00N 39°04' W 090°42'2 3.9
2018-May-10 00:30N 39°02' W 090°42'2 3.7
2018-May-10 00:00N 39°00' W 090°41'0 0.0
2018-May-09 23:30N 39°00' W 090°41'0 0.2
2018-May-09 23:00N 39°00' W 090°41'0 0.5
2018-May-09 22:30N 38°60' W 090°41'29 2.1
2018-May-09 08:25N 38°49' W 090°07'1 3.0
2018-May-09 08:00N 38°48' W 090°07'3 5.6
2018-May-09 07:30N 38°45' W 090°09'0 0.0
2018-May-09 07:00N 38°45' W 090°09'0 0.7
2018-May-09 06:30N 38°45' W 090°09'0 0.6
2018-May-09 06:00N 38°45' W 090°09'2 3.1
2018-May-09 05:26N 38°43' W 090°10'1 2.6
2018-May-09 05:00N 38°42' W 090°11'0 0.7
2018-May-09 04:30N 38°42' W 090°11'0 0.5
2018-May-09 03:59N 38°42' W 090°11'0 0.0
2018-May-09 03:28N 38°42' W 090°11'0 0.0
2018-May-09 03:00N 38°41' W 090°11'0 0.0
2018-May-09 02:30N 38°41' W 090°11'1 1.8
2018-May-09 02:00N 38°41' W 090°11'2 4.9
2018-May-09 01:30N 38°38' W 090°11'3 5.0
2018-May-09 00:59N 38°36' W 090°12'4 4.0
2018-May-08 23:58N 38°33' W 090°15'6 0.6
2018-May-08 12:41N 38°27' W 090°17'1 3.2
2018-May-08 12:30N 38°27' W 090°17'4 9.0
2018-May-08 12:00N 38°31' W 090°16'5 9.8
2018-May-08 11:30N 38°35' W 090°12'510.4
2018-May-08 11:00N 38°40' W 090°11'2 3.4
2018-May-08 10:30N 38°42' W 090°11'1 1.0
2018-May-08 10:00N 38°43' W 090°11'1 1.8
2018-May-08 09:30N 38°43' W 090°10'1 2.8
2018-May-08 09:00N 38°45' W 090°09'1 2.1
2018-May-08 08:30N 38°45' W 090°08'2 3.8
2018-May-08 08:00N 38°47' W 090°07'4 7.6
2018-May-08 07:30N 38°51' W 090°07'2 4.5
2018-May-08 07:00N 38°52' W 090°09'0 0.7
2018-May-08 06:30N 38°52' W 090°10'2 4.0
2018-May-08 06:00N 38°53' W 090°12'2 3.9
2018-May-08 05:30N 38°55' W 090°13'0 0.0
2018-May-08 05:00N 38°55' W 090°13'0 0.0
2018-May-08 04:30N 38°55' W 090°13'0 0.0
2018-May-08 04:00N 38°55' W 090°13'1 2.3
2018-May-08 03:30N 38°55' W 090°15'3 6.9
2018-May-08 03:00N 38°56' W 090°19'3 6.6
2018-May-08 02:30N 38°57' W 090°23'3 6.5
2018-May-08 02:00N 38°57' W 090°27'3 6.7
2018-May-08 01:30N 38°55' W 090°30'3 6.6
2018-May-08 01:00N 38°52' W 090°33'3 6.5
2018-May-08 00:30N 38°52' W 090°37'3 6.5
2018-May-08 00:00N 38°55' W 090°39'4 6.7
2018-May-07 23:24N 38°59' W 090°40'1 3.8
2018-May-07 23:00N 39°00' W 090°41'0 0.0
2018-May-07 22:30N 39°00' W 090°41'0 0.2
2018-May-07 22:00N 39°00' W 090°41'0 0.0
2018-May-07 21:30N 39°00' W 090°41'0 0.6
2018-May-07 21:00N 39°01' W 090°42'2 4.6
2018-May-07 20:30N 39°03' W 090°43'0 0.5
2018-May-07 20:00N 39°03' W 090°43'0 0.0
2018-May-07 19:30N 39°03' W 090°43'0 0.0
2018-May-07 19:00N 39°03' W 090°43'0 0.0
2018-May-07 18:30N 39°03' W 090°43'0 0.0
2018-May-07 18:00N 39°03' W 090°43'1 1.8
2018-May-07 17:30N 39°04' W 090°43'3 5.9
2018-May-07 16:58N 39°07' W 090°41'  
2018-Apr-30 12:02N 39°15' W 090°44'0 4.7
2018-Apr-30 11:59N 39°15' W 090°44'4 4.9
2018-Apr-30 11:13N 39°11' W 090°43'2 4.6
2018-Apr-30 10:49N 39°10' W 090°43'1 4.5
2018-Apr-30 10:30N 39°08' W 090°42'2 4.9
2018-Apr-30 10:00N 39°06' W 090°41'2 4.4
2018-Apr-30 09:29N 39°04' W 090°42'  
Track history (hours):
 
Tides and Currents Weather Stations Pressure Air Temp Water Temp Dewpoint Dewpoint Depression Visibility Wind Speed Wind Dir Waves Ship Positions

Penny Eckstein

Owner: Marquette Transportation Co. LLC, Paducah, KY. More information available from US FCC via Universal Licensing System and Coast Guard Vessel Documentation Center.

Last reported at 2018-May-10 09:18 UTC. Time now 2018-Jun-23 15:34 UTC.
Position N 39°22' W 090°54'.
Warning: this ship's position is 44 days out of date.

Length 39 m; draft 2.8 m.

Type: Towing. MMSI: 367668810.

Date/timePositionNaut miles runAvg speedWind from/ knotsBaromVisibWave heightAir tempDewpointWater temp
2018-May-10 09:18N 39°22' W 090°54'0 0.1
2018-May-10 09:00N 39°22' W 090°54'0 0.0
2018-May-10 08:30N 39°22' W 090°54'0 0.3
2018-May-10 08:00N 39°22' W 090°54'16 2.8
2018-May-10 02:26N 39°10' W 090°43'2 4.2
2018-May-10 02:00N 39°08' W 090°42'4 4.0
2018-May-10 01:03N 39°04' W 090°42'0 4.7
2018-May-10 01:00N 39°04' W 090°42'2 3.9
2018-May-10 00:30N 39°02' W 090°42'2 3.7
2018-May-10 00:00N 39°00' W 090°41'0 0.0
2018-May-09 23:30N 39°00' W 090°41'0 0.2
2018-May-09 23:00N 39°00' W 090°41'0 0.5
2018-May-09 22:30N 38°60' W 090°41'29 2.1
2018-May-09 08:25N 38°49' W 090°07'1 3.0
2018-May-09 08:00N 38°48' W 090°07'3 5.6
2018-May-09 07:30N 38°45' W 090°09'0 0.0
2018-May-09 07:00N 38°45' W 090°09'0 0.7
2018-May-09 06:30N 38°45' W 090°09'0 0.6
2018-May-09 06:00N 38°45' W 090°09'2 3.1
2018-May-09 05:26N 38°43' W 090°10'1 2.6
2018-May-09 05:00N 38°42' W 090°11'0 0.7
2018-May-09 04:30N 38°42' W 090°11'0 0.5
2018-May-09 03:59N 38°42' W 090°11'0 0.0
2018-May-09 03:28N 38°42' W 090°11'0 0.0
2018-May-09 03:00N 38°41' W 090°11'0 0.0
2018-May-09 02:30N 38°41' W 090°11'1 1.8
2018-May-09 02:00N 38°41' W 090°11'2 4.9
2018-May-09 01:30N 38°38' W 090°11'3 5.0
2018-May-09 00:59N 38°36' W 090°12'4 4.0
2018-May-08 23:58N 38°33' W 090°15'6 0.6
2018-May-08 12:41N 38°27' W 090°17'1 3.2
2018-May-08 12:30N 38°27' W 090°17'4 9.0
2018-May-08 12:00N 38°31' W 090°16'5 9.8
2018-May-08 11:30N 38°35' W 090°12'510.4
2018-May-08 11:00N 38°40' W 090°11'2 3.4
2018-May-08 10:30N 38°42' W 090°11'1 1.0
2018-May-08 10:00N 38°43' W 090°11'1 1.8
2018-May-08 09:30N 38°43' W 090°10'1 2.8
2018-May-08 09:00N 38°45' W 090°09'1 2.1
2018-May-08 08:30N 38°45' W 090°08'2 3.8
2018-May-08 08:00N 38°47' W 090°07'4 7.6
2018-May-08 07:30N 38°51' W 090°07'2 4.5
2018-May-08 07:00N 38°52' W 090°09'0 0.7
2018-May-08 06:30N 38°52' W 090°10'2 4.0
2018-May-08 06:00N 38°53' W 090°12'2 3.9
2018-May-08 05:30N 38°55' W 090°13'0 0.0
2018-May-08 05:00N 38°55' W 090°13'0 0.0
2018-May-08 04:30N 38°55' W 090°13'0 0.0
2018-May-08 04:00N 38°55' W 090°13'1 2.3
2018-May-08 03:30N 38°55' W 090°15'3 6.9
2018-May-08 03:00N 38°56' W 090°19'3 6.6
2018-May-08 02:30N 38°57' W 090°23'3 6.5
2018-May-08 02:00N 38°57' W 090°27'3 6.7
2018-May-08 01:30N 38°55' W 090°30'3 6.6
2018-May-08 01:00N 38°52' W 090°33'3 6.5
2018-May-08 00:30N 38°52' W 090°37'3 6.5
2018-May-08 00:00N 38°55' W 090°39'4 6.7
2018-May-07 23:24N 38°59' W 090°40'1 3.8
2018-May-07 23:00N 39°00' W 090°41'0 0.0
2018-May-07 22:30N 39°00' W 090°41'0 0.2
2018-May-07 22:00N 39°00' W 090°41'0 0.0
2018-May-07 21:30N 39°00' W 090°41'0 0.6
2018-May-07 21:00N 39°01' W 090°42'2 4.6
2018-May-07 20:30N 39°03' W 090°43'0 0.5
2018-May-07 20:00N 39°03' W 090°43'0 0.0
2018-May-07 19:30N 39°03' W 090°43'0 0.0
2018-May-07 19:00N 39°03' W 090°43'0 0.0
2018-May-07 18:30N 39°03' W 090°43'0 0.0
2018-May-07 18:00N 39°03' W 090°43'1 1.8
2018-May-07 17:30N 39°04' W 090°43'3 5.9
2018-May-07 16:58N 39°07' W 090°41'  
2018-Apr-30 12:02N 39°15' W 090°44'0 4.7
2018-Apr-30 11:59N 39°15' W 090°44'4 4.9
2018-Apr-30 11:13N 39°11' W 090°43'2 4.6
2018-Apr-30 10:49N 39°10' W 090°43'1 4.5
2018-Apr-30 10:30N 39°08' W 090°42'2 4.9
2018-Apr-30 10:00N 39°06' W 090°41'2 4.4
2018-Apr-30 09:29N 39°04' W 090°42'  

Dump ship's entire track history